createdAt,value
2023-02-09T00:00:06.864Z,1026.72
2023-02-09T00:03:15.478Z,1026.81
2023-02-09T00:06:23.767Z,1026.81
2023-02-09T00:09:31.697Z,1026.82
2023-02-09T00:12:40.051Z,1026.66
2023-02-09T00:15:47.718Z,1026.74
2023-02-09T00:18:55.705Z,1026.56
2023-02-09T00:22:03.736Z,1026.65
2023-02-09T00:25:11.734Z,1026.69
2023-02-09T00:28:19.786Z,1026.61
2023-02-09T00:31:28.174Z,1026.66
2023-02-09T00:34:36.096Z,1026.61
2023-02-09T00:37:43.925Z,1026.64
2023-02-09T00:40:52.125Z,1026.57
2023-02-09T00:44:00.678Z,1026.62
2023-02-09T00:47:08.707Z,1026.52
2023-02-09T00:50:16.685Z,1026.57
2023-02-09T00:53:25.188Z,1026.53
2023-02-09T00:56:32.816Z,1026.43
2023-02-09T00:59:41.316Z,1026.44
2023-02-09T01:02:49.836Z,1026.37
2023-02-09T01:05:57.498Z,1026.35
2023-02-09T01:09:05.914Z,1026.36
2023-02-09T01:12:14.157Z,1026.46
2023-02-09T01:15:22.286Z,1026.48
2023-02-09T01:18:30.491Z,1026.53
2023-02-09T01:21:38.822Z,1026.43
2023-02-09T01:24:46.736Z,1026.39
2023-02-09T01:27:54.787Z,1026.35
2023-02-09T01:31:02.963Z,1026.41
2023-02-09T01:34:11.635Z,1026.35
2023-02-09T01:37:18.918Z,1026.37
2023-02-09T01:40:26.229Z,1026.43
2023-02-09T01:43:34.038Z,1026.35
2023-02-09T01:46:41.424Z,1026.33
2023-02-09T01:49:48.830Z,1026.22
2023-02-09T01:52:56.187Z,1026.24
2023-02-09T01:56:03.545Z,1026.25
2023-02-09T01:59:11.176Z,1026.21
2023-02-09T02:02:18.755Z,1026.14
2023-02-09T02:05:25.583Z,1026.13
2023-02-09T02:08:33.286Z,1026.11
2023-02-09T02:11:40.600Z,1026.03
2023-02-09T02:14:48.029Z,1025.87
2023-02-09T02:17:55.421Z,1025.87
2023-02-09T02:21:02.806Z,1025.79
2023-02-09T02:24:10.256Z,1025.75
2023-02-09T02:27:17.946Z,1025.79
2023-02-09T02:30:24.838Z,1025.65
2023-02-09T02:33:32.798Z,1025.63
2023-02-09T02:36:39.751Z,1025.56
2023-02-09T02:39:47.559Z,1025.58
2023-02-09T02:42:54.798Z,1025.57
2023-02-09T02:46:02.038Z,1025.49
2023-02-09T02:49:09.322Z,1025.50
2023-02-09T02:52:16.988Z,1025.50
2023-02-09T02:55:24.278Z,1025.45
2023-02-09T02:58:31.956Z,1025.37
2023-02-09T03:01:39.482Z,1025.33
2023-02-09T03:04:46.860Z,1025.35
2023-02-09T03:07:54.740Z,1025.35
2023-02-09T03:11:01.641Z,1025.36
2023-02-09T03:14:09.409Z,1025.42
2023-02-09T03:17:16.726Z,1025.29
2023-02-09T03:20:24.268Z,1025.27
2023-02-09T03:23:31.518Z,1025.26
2023-02-09T03:26:38.768Z,1025.19
2023-02-09T03:29:46.252Z,1025.21
2023-02-09T03:32:54.017Z,1025.18
2023-02-09T03:36:01.196Z,1025.14
2023-02-09T03:39:09.174Z,1025.19
2023-02-09T03:42:16.621Z,1025.10
2023-02-09T03:45:24.102Z,1025.13
2023-02-09T03:48:31.201Z,1025.22
2023-02-09T03:51:38.524Z,1025.17
2023-02-09T03:54:45.872Z,1025.21
2023-02-09T03:57:53.641Z,1025.31
2023-02-09T04:01:00.596Z,1025.29
2023-02-09T04:04:08.480Z,1025.30
2023-02-09T04:07:15.623Z,1025.35
2023-02-09T04:10:23.890Z,1025.21
2023-02-09T04:13:31.290Z,1025.18
2023-02-09T04:16:38.916Z,1025.06
2023-02-09T04:19:46.338Z,1025.03
2023-02-09T04:22:53.754Z,1025.08
2023-02-09T04:26:00.924Z,1025.01
2023-02-09T04:29:08.729Z,1025.01
2023-02-09T04:32:15.660Z,1025.07
2023-02-09T04:35:24.541Z,1025.01
2023-02-09T04:38:31.361Z,1024.96
2023-02-09T04:41:39.237Z,1024.94
2023-02-09T04:44:46.947Z,1024.89
2023-02-09T04:47:54.307Z,1024.89
2023-02-09T04:51:01.601Z,1024.77
2023-02-09T04:54:09.749Z,1024.71
2023-02-09T04:57:16.651Z,1024.81
2023-02-09T05:00:24.380Z,1024.73
2023-02-09T05:03:31.485Z,1024.81
2023-02-09T05:06:39.040Z,1024.80
2023-02-09T05:09:46.277Z,1024.76
2023-02-09T05:12:53.660Z,1024.69
2023-02-09T05:16:00.843Z,1024.68
2023-02-09T05:19:07.793Z,1024.76
2023-02-09T05:22:15.286Z,1024.68
2023-02-09T05:25:23.138Z,1024.67
2023-02-09T05:28:30.158Z,1024.61
2023-02-09T05:31:37.964Z,1024.56
2023-02-09T05:34:45.253Z,1024.57
2023-02-09T05:37:52.927Z,1024.60
2023-02-09T05:41:00.293Z,1024.58
2023-02-09T05:44:07.790Z,1024.63
2023-02-09T05:47:15.113Z,1024.62
2023-02-09T05:50:22.760Z,1024.63
2023-02-09T05:53:29.516Z,1024.60
2023-02-09T05:56:37.180Z,1024.55
2023-02-09T05:59:44.206Z,1024.56
2023-02-09T06:02:52.612Z,1024.52
2023-02-09T06:06:00.202Z,1024.57
2023-02-09T06:09:07.664Z,1024.57
2023-02-09T06:12:14.997Z,1024.56
2023-02-09T06:15:22.797Z,1024.55
2023-02-09T06:18:29.738Z,1024.54
2023-02-09T06:21:37.463Z,1024.57
2023-02-09T06:24:44.299Z,1024.60
2023-02-09T06:27:51.992Z,1024.65
2023-02-09T06:30:59.382Z,1024.68
2023-02-09T06:34:06.956Z,1024.80
2023-02-09T06:37:14.279Z,1024.75
2023-02-09T06:40:21.682Z,1024.70
2023-02-09T06:43:29.308Z,1024.68
2023-02-09T06:46:37.010Z,1024.68
2023-02-09T06:49:44.072Z,1024.70
2023-02-09T06:52:51.977Z,1024.67
2023-02-09T06:55:59.516Z,1024.66
2023-02-09T06:59:06.994Z,1024.63
2023-02-09T07:02:14.537Z,1024.62
2023-02-09T07:05:22.181Z,1024.67
2023-02-09T07:08:29.867Z,1024.76
2023-02-09T07:11:37.977Z,1024.59
2023-02-09T07:14:45.204Z,1024.53
2023-02-09T07:17:53.394Z,1024.66
2023-02-09T07:21:00.834Z,1024.68
2023-02-09T07:24:08.569Z,1024.68
2023-02-09T07:27:16.314Z,1024.69
2023-02-09T07:30:23.768Z,1024.76
2023-02-09T07:33:31.328Z,1024.70
2023-02-09T07:36:39.195Z,1024.80
2023-02-09T07:39:46.563Z,1024.88
2023-02-09T07:42:54.672Z,1024.80
2023-02-09T07:46:02.372Z,1024.73
2023-02-09T07:49:09.885Z,1024.67
2023-02-09T07:52:17.842Z,1024.48
2023-02-09T07:55:25.375Z,1024.48
2023-02-09T07:58:32.834Z,1024.57
2023-02-09T08:01:41.033Z,1024.50
2023-02-09T08:04:48.011Z,1024.49
2023-02-09T08:07:56.224Z,1024.48
2023-02-09T08:11:03.495Z,1024.44
2023-02-09T08:14:11.070Z,1024.40
2023-02-09T08:17:18.486Z,1024.44
2023-02-09T08:20:25.886Z,1024.50
2023-02-09T08:23:33.179Z,1024.58
2023-02-09T08:26:41.054Z,1024.62
2023-02-09T08:29:49.113Z,1024.61
2023-02-09T08:32:57.053Z,1024.56
2023-02-09T08:36:04.511Z,1024.58
2023-02-09T08:39:12.013Z,1024.57
2023-02-09T08:42:19.388Z,1024.59
2023-02-09T08:45:27.166Z,1024.60
2023-02-09T08:48:35.821Z,1024.49
2023-02-09T08:51:43.643Z,1024.35
2023-02-09T08:54:50.554Z,1024.39
2023-02-09T08:57:58.381Z,1024.27
2023-02-09T09:01:06.005Z,1024.32
2023-02-09T09:04:13.550Z,1024.40
2023-02-09T09:07:21.068Z,1024.44
2023-02-09T09:10:28.503Z,1024.37
2023-02-09T09:13:35.925Z,1024.48
2023-02-09T09:16:43.686Z,1024.40
2023-02-09T09:19:50.897Z,1024.38
2023-02-09T09:22:58.978Z,1024.37
2023-02-09T09:26:06.627Z,1024.33
2023-02-09T09:29:14.164Z,1024.39
2023-02-09T09:32:21.793Z,1024.41
2023-02-09T09:35:29.459Z,1024.42
2023-02-09T09:38:36.868Z,1024.45
2023-02-09T09:41:44.705Z,1024.47
2023-02-09T09:44:52.587Z,1024.59
2023-02-09T09:47:59.474Z,1024.55
2023-02-09T09:51:07.150Z,1024.49
2023-02-09T09:54:14.738Z,1024.55
2023-02-09T09:57:21.862Z,1024.58
2023-02-09T10:00:29.468Z,1024.62
2023-02-09T10:03:36.872Z,1024.71
2023-02-09T10:06:44.919Z,1024.71
2023-02-09T10:09:52.206Z,1024.61
2023-02-09T10:12:59.390Z,1024.62
2023-02-09T10:16:07.574Z,1024.54
2023-02-09T10:19:14.619Z,1024.57
2023-02-09T10:22:22.044Z,1024.58
2023-02-09T10:25:29.745Z,1024.67
2023-02-09T10:28:36.806Z,1024.61
2023-02-09T10:31:44.677Z,1024.52
2023-02-09T10:34:52.127Z,1024.55
2023-02-09T10:37:59.574Z,1024.55
2023-02-09T10:41:07.851Z,1024.51
2023-02-09T10:44:15.460Z,1024.57
2023-02-09T10:47:22.767Z,1024.64
2023-02-09T10:50:30.458Z,1024.56
2023-02-09T10:53:37.454Z,1024.60
2023-02-09T10:56:45.058Z,1024.63
2023-02-09T10:59:52.698Z,1024.68
2023-02-09T11:02:59.696Z,1024.58
2023-02-09T11:06:07.682Z,1024.55
2023-02-09T11:09:14.809Z,1024.49
2023-02-09T11:12:22.144Z,1024.51
2023-02-09T11:15:30.082Z,1024.50
2023-02-09T11:18:37.338Z,1024.44
2023-02-09T11:21:44.689Z,1024.48
2023-02-09T11:24:52.087Z,1024.43
2023-02-09T11:27:59.396Z,1024.29
2023-02-09T11:31:06.848Z,1024.23
2023-02-09T11:34:14.376Z,1024.23
2023-02-09T11:37:21.932Z,1024.26
2023-02-09T11:40:29.231Z,1024.23
2023-02-09T11:43:37.033Z,1024.16
2023-02-09T11:46:44.829Z,1024.11
2023-02-09T11:49:52.524Z,1024.07
2023-02-09T11:53:00.145Z,1023.98
2023-02-09T11:56:07.327Z,1023.82
2023-02-09T11:59:15.440Z,1023.81
2023-02-09T12:02:23.942Z,1023.83
2023-02-09T12:05:30.990Z,1023.74
2023-02-09T12:08:38.779Z,1023.77
2023-02-09T12:11:46.191Z,1023.84
2023-02-09T12:14:53.497Z,1023.71
2023-02-09T12:18:01.288Z,1023.58
2023-02-09T12:21:08.571Z,1023.50
2023-02-09T12:24:16.080Z,1023.50
2023-02-09T12:27:22.930Z,1023.54
2023-02-09T12:30:31.067Z,1023.44
2023-02-09T12:33:38.332Z,1023.51
2023-02-09T12:36:45.617Z,1023.50
2023-02-09T12:39:59.975Z,1023.46
2023-02-09T12:42:56.560Z,1023.48
2023-02-09T12:46:04.381Z,1023.55
2023-02-09T12:49:12.429Z,1023.55
2023-02-09T12:52:19.381Z,1023.61
2023-02-09T12:55:27.335Z,1023.71
2023-02-09T12:58:34.815Z,1023.71
2023-02-09T13:01:42.134Z,1023.74
2023-02-09T13:04:49.766Z,1023.68
2023-02-09T13:07:57.211Z,1023.71
2023-02-09T13:11:04.761Z,1023.56
2023-02-09T13:14:12.578Z,1023.61
2023-02-09T13:17:20.094Z,1023.70
2023-02-09T13:20:27.436Z,1023.63
2023-02-09T13:23:35.227Z,1023.57
2023-02-09T13:26:42.595Z,1023.65
2023-02-09T13:29:49.875Z,1023.68
2023-02-09T13:32:57.635Z,1023.54
2023-02-09T13:36:08.907Z,1023.67
2023-02-09T13:39:08.221Z,1023.71
2023-02-09T13:42:15.568Z,1023.69
2023-02-09T13:45:23.020Z,1023.47
2023-02-09T13:48:30.887Z,1023.54
2023-02-09T13:51:38.195Z,1023.50
2023-02-09T13:54:45.580Z,1023.56
2023-02-09T13:57:53.206Z,1023.61
2023-02-09T14:01:01.370Z,1023.68
2023-02-09T14:04:08.989Z,1023.62
2023-02-09T14:07:16.510Z,1023.56
2023-02-09T14:10:24.404Z,1023.56
2023-02-09T14:13:31.664Z,1023.52
2023-02-09T14:16:52.602Z,1023.41
2023-02-09T14:19:44.645Z,1023.42
2023-02-09T14:22:51.577Z,1023.47
2023-02-09T14:25:59.520Z,1023.43
2023-02-09T14:29:06.773Z,1023.43
2023-02-09T14:32:17.150Z,1023.45
2023-02-09T14:35:17.791Z,1023.45
2023-02-09T14:38:25.149Z,1023.38
2023-02-09T14:41:32.552Z,1023.35
2023-02-09T14:44:40.441Z,1023.36
2023-02-09T14:47:48.153Z,1023.33
2023-02-09T14:50:55.534Z,1023.32
2023-02-09T14:54:02.837Z,1023.23
2023-02-09T14:57:10.445Z,1023.15
2023-02-09T15:00:17.329Z,1022.99
2023-02-09T15:03:25.095Z,1023.07
2023-02-09T15:06:33.136Z,1023.08
2023-02-09T15:09:40.338Z,1023.09
2023-02-09T15:12:48.462Z,1023.11
2023-02-09T15:15:56.641Z,1023.06
2023-02-09T15:19:03.670Z,1023.08
2023-02-09T15:22:11.500Z,1023.13
2023-02-09T15:25:19.013Z,1023.15
2023-02-09T15:28:26.618Z,1023.04
2023-02-09T15:31:34.328Z,1023.04
2023-02-09T15:34:41.848Z,1023.19
2023-02-09T15:37:49.336Z,1023.21
2023-02-09T15:40:56.702Z,1023.19
2023-02-09T15:44:04.495Z,1023.31
2023-02-09T15:47:11.622Z,1023.27
2023-02-09T15:50:19.504Z,1023.36
2023-02-09T15:53:27.248Z,1023.30
2023-02-09T15:56:34.156Z,1023.43
2023-02-09T15:59:41.901Z,1023.38
2023-02-09T16:02:49.498Z,1023.40
2023-02-09T16:05:56.967Z,1023.40
2023-02-09T16:09:04.833Z,1023.43
2023-02-09T16:12:12.573Z,1023.34
2023-02-09T16:15:19.967Z,1023.38
2023-02-09T16:18:28.048Z,1023.52
2023-02-09T16:21:35.368Z,1023.54
2023-02-09T16:24:42.549Z,1023.60
2023-02-09T16:27:50.122Z,1023.61
2023-02-09T16:30:57.942Z,1023.71
2023-02-09T16:34:05.306Z,1023.71
2023-02-09T16:37:12.660Z,1023.81
2023-02-09T16:40:20.144Z,1023.78
2023-02-09T16:43:27.382Z,1023.98
2023-02-09T16:46:34.601Z,1023.99
2023-02-09T16:49:41.942Z,1024.04
2023-02-09T16:52:48.945Z,1024.12
2023-02-09T16:55:56.682Z,1024.11
2023-02-09T16:59:03.957Z,1024.16
2023-02-09T17:02:10.987Z,1024.12
2023-02-09T17:05:18.849Z,1024.18
2023-02-09T17:08:26.118Z,1024.19
2023-02-09T17:11:33.250Z,1024.25
2023-02-09T17:14:40.931Z,1024.31
2023-02-09T17:17:47.894Z,1024.32
2023-02-09T17:20:55.883Z,1024.39
2023-02-09T17:24:03.672Z,1024.37
2023-02-09T17:27:10.629Z,1024.50
2023-02-09T17:30:18.334Z,1024.44
2023-02-09T17:33:26.057Z,1024.46
2023-02-09T17:36:33.270Z,1024.50
2023-02-09T17:39:40.924Z,1024.42
2023-02-09T17:42:48.220Z,1024.52
2023-02-09T17:45:55.535Z,1024.63
2023-02-09T17:49:03.218Z,1024.58
2023-02-09T17:52:10.518Z,1024.57
2023-02-09T17:55:17.992Z,1024.55
2023-02-09T17:58:25.014Z,1024.59
2023-02-09T18:01:32.806Z,1024.53
2023-02-09T18:04:40.286Z,1024.57
2023-02-09T18:07:47.329Z,1024.56
2023-02-09T18:10:55.236Z,1024.54
2023-02-09T18:14:02.480Z,1024.56
2023-02-09T18:17:10.249Z,1024.66
2023-02-09T18:20:17.553Z,1024.68
2023-02-09T18:23:24.693Z,1024.64
2023-02-09T18:26:31.995Z,1024.65
2023-02-09T18:29:39.678Z,1024.65
2023-02-09T18:32:46.838Z,1024.68
2023-02-09T18:35:54.375Z,1024.71
2023-02-09T18:39:01.825Z,1024.81
2023-02-09T18:42:09.372Z,1024.84
2023-02-09T18:45:17.293Z,1024.93
2023-02-09T18:48:25.464Z,1024.86
2023-02-09T18:51:32.556Z,1024.84
2023-02-09T18:54:40.757Z,1024.85
2023-02-09T18:57:47.644Z,1024.88
2023-02-09T19:00:55.576Z,1024.88
2023-02-09T19:04:03.378Z,1024.85
2023-02-09T19:07:10.290Z,1024.70
2023-02-09T19:10:17.953Z,1024.75
2023-02-09T19:13:25.535Z,1024.78
2023-02-09T19:16:32.627Z,1024.79
2023-02-09T19:19:40.195Z,1024.71
2023-02-09T19:22:47.723Z,1024.80
2023-02-09T19:25:55.255Z,1024.76
2023-02-09T19:29:02.865Z,1024.78
2023-02-09T19:32:10.150Z,1024.79
2023-02-09T19:35:17.535Z,1024.78
2023-02-09T19:38:24.948Z,1024.74
2023-02-09T19:41:32.449Z,1024.69
2023-02-09T19:44:39.760Z,1024.69
2023-02-09T19:47:46.943Z,1024.76
2023-02-09T19:50:54.411Z,1024.74
2023-02-09T19:54:01.920Z,1024.60
2023-02-09T19:57:09.617Z,1024.61
2023-02-09T20:00:17.539Z,1024.53
2023-02-09T20:03:24.780Z,1024.50
2023-02-09T20:06:32.268Z,1024.61
2023-02-09T20:09:40.135Z,1024.59
2023-02-09T20:12:47.514Z,1024.64
2023-02-09T20:15:54.666Z,1024.60
2023-02-09T20:19:02.069Z,1024.57
2023-02-09T20:22:09.197Z,1024.54
2023-02-09T20:25:16.720Z,1024.49
2023-02-09T20:28:24.513Z,1024.54
2023-02-09T20:31:31.601Z,1024.52
2023-02-09T20:34:39.267Z,1024.50
2023-02-09T20:37:47.122Z,1024.48
2023-02-09T20:40:54.075Z,1024.56
2023-02-09T20:44:01.721Z,1024.52
2023-02-09T20:47:08.936Z,1024.62
2023-02-09T20:50:16.249Z,1024.55
2023-02-09T20:53:23.954Z,1024.59
2023-02-09T20:56:31.114Z,1024.59
2023-02-09T20:59:38.686Z,1024.66
2023-02-09T21:02:46.366Z,1024.62
2023-02-09T21:05:53.895Z,1024.65
2023-02-09T21:09:01.286Z,1024.59
2023-02-09T21:12:08.439Z,1024.58
2023-02-09T21:15:15.904Z,1024.61
2023-02-09T21:18:23.086Z,1024.54
2023-02-09T21:21:30.279Z,1024.57
2023-02-09T21:24:37.943Z,1024.60
2023-02-09T21:27:44.737Z,1024.67
2023-02-09T21:30:52.185Z,1024.61
2023-02-09T21:33:59.678Z,1024.64
2023-02-09T21:37:06.457Z,1024.67
2023-02-09T21:40:13.993Z,1024.69
2023-02-09T21:43:22.112Z,1024.74
2023-02-09T21:46:29.168Z,1024.68
2023-02-09T21:49:37.063Z,1024.71
2023-02-09T21:52:44.642Z,1024.73
2023-02-09T21:55:51.536Z,1024.76
2023-02-09T21:58:59.182Z,1024.73
2023-02-09T22:02:06.331Z,1024.79
2023-02-09T22:05:13.507Z,1024.87
2023-02-09T22:08:20.943Z,1024.87
2023-02-09T22:11:28.083Z,1024.92
2023-02-09T22:14:35.357Z,1024.88
2023-02-09T22:17:43.020Z,1024.89
2023-02-09T22:20:50.274Z,1024.93
2023-02-09T22:23:57.804Z,1025.00
2023-02-09T22:27:05.782Z,1025.03
2023-02-09T22:30:13.042Z,1025.09
2023-02-09T22:33:20.346Z,1025.19
2023-02-09T22:36:27.641Z,1025.25
2023-02-09T22:39:35.545Z,1025.32
2023-02-09T22:42:42.756Z,1025.34
2023-02-09T22:45:50.196Z,1025.48
2023-02-09T22:48:58.391Z,1025.48
2023-02-09T22:52:05.678Z,1025.50
2023-02-09T22:55:13.061Z,1025.48
2023-02-09T22:57:35.316Z,1025.45
2023-02-09T23:00:42.019Z,1025.50
2023-02-09T23:03:49.707Z,1025.50
2023-02-09T23:06:57.248Z,1025.54
2023-02-09T23:10:04.372Z,1025.63
2023-02-09T23:13:12.095Z,1025.65
2023-02-09T23:16:19.706Z,1025.58
2023-02-09T23:19:27.091Z,1025.65
2023-02-09T23:22:34.869Z,1025.72
2023-02-09T23:25:42.155Z,1025.75
2023-02-09T23:28:49.649Z,1025.75
2023-02-09T23:31:57.391Z,1025.90
2023-02-09T23:35:04.833Z,1025.90
2023-02-09T23:38:12.132Z,1025.85
2023-02-09T23:41:20.339Z,1025.90
2023-02-09T23:44:27.851Z,1026.00
2023-02-09T23:47:35.117Z,1025.96
2023-02-09T23:50:42.332Z,1025.93
2023-02-09T23:53:49.665Z,1026.02
2023-02-09T23:56:57.262Z,1025.94
